Alianca Shanghai — A8CQ5 — position and weather

sailwx.info

Track history (hours):
 
Tides and Currents Weather Stations Pressure Air Temp Water Temp Dewpoint Dewpoint Depression Visibility Wind Speed Wind Dir Waves Ship Positions

Alianca Shanghai

Last reported at 2016-May-02 04:25 UTC. Time now 2016-May-04 04:07 UTC.
Position N 36°00' W 005°27'.

Length 199.9 m; beam 29.8 m; draft 11.6 m.

Type: Ship. MMSI: 636016014.

Date/timePositionNaut miles runAvg speedWind from/ knotsBaromVisibWave heightAir tempDewpointWater temp
2016-May-02 04:25N 36°00' W 005°27'1012.2
2016-May-02 03:34N 36°03' W 005°15'20813.8
2016-May-01 12:30N 37°09' W 001°09'1515.0
2016-May-01 11:31N 37°19' W 000°55'1414.4
2016-May-01 10:33N 37°28' W 000°42'1414.3
2016-May-01 09:34N 37°38' W 000°30'1414.3
2016-May-01 08:33N 37°51' W 000°20'9411.8
2016-May-01 00:33N 39°25' W 000°16'3 3.0
2016-Apr-30 23:33N 39°26' W 000°19'0 0.0
2016-Apr-30 22:33N 39°26' W 000°19'0 0.0
2016-Apr-30 20:27N 39°26' W 000°19'0 0.0
2016-Apr-30 19:18N 39°26' W 000°19'0 0.0
2016-Apr-30 18:30N 39°26' W 000°19'0 0.0
2016-Apr-30 17:33N 39°26' W 000°19'0 0.0
2016-Apr-30 16:33N 39°26' W 000°19'0 0.0
2016-Apr-30 15:33N 39°26' W 000°19'0 0.0
2016-Apr-30 14:21N 39°26' W 000°19'0 0.0
2016-Apr-30 13:33N 39°26' W 000°19'0 0.0
2016-Apr-30 12:24N 39°26' W 000°19'0 0.0
2016-Apr-30 11:33N 39°26' W 000°19'0 0.0
2016-Apr-30 10:33N 39°26' W 000°19'0 0.0
2016-Apr-30 08:30N 39°26' W 000°19'0 0.0
2016-Apr-30 07:33N 39°26' W 000°19'0 0.0
2016-Apr-30 06:33N 39°26' W 000°19'0 0.0
2016-Apr-30 05:33N 39°26' W 000°19'0 0.0
2016-Apr-30 04:33N 39°26' W 000°19'0 0.0
2016-Apr-30 03:33N 39°26' W 000°19'0 0.0
2016-Apr-30 02:33N 39°26' W 000°19'0 0.0
2016-Apr-30 01:33N 39°26' W 000°19'0 0.0
2016-Apr-30 00:33N 39°26' W 000°19'0 0.0
2016-Apr-29 23:33N 39°26' W 000°19'0 0.0
2016-Apr-29 22:33N 39°26' W 000°19'0 0.4
2016-Apr-29 21:33N 39°26' W 000°19'0 0.0
2016-Apr-29 20:33N 39°26' W 000°19'0 0.0
2016-Apr-29 19:33N 39°26' W 000°19'0 0.0
2016-Apr-29 18:33N 39°26' W 000°19'0 0.0
2016-Apr-29 16:30N 39°26' W 000°19'0 0.0
2016-Apr-29 15:33N 39°26' W 000°19'0 0.0
2016-Apr-29 14:27N 39°26' W 000°19'0 0.0
2016-Apr-29 13:33N 39°26' W 000°19'0 0.0
2016-Apr-29 12:33N 39°26' W 000°19'0 0.0
2016-Apr-29 11:12N 39°26' W 000°19'0 0.0
2016-Apr-29 10:30N 39°26' W 000°19'5 5.4
2016-Apr-29 09:33N 39°25' W 000°13'8 8.2
2016-Apr-29 08:33N 39°28' W 000°03'6110.1
2016-Apr-29 02:28N 40°01' E 001°04'3311.2
2016-Apr-28 23:33N 40°28' E 001°28'1111.5
2016-Apr-28 22:33N 40°38' E 001°36'1211.6
2016-Apr-28 21:33N 40°48' E 001°45'1511.7
2016-Apr-28 20:14N 41°00' E 001°56'285 8.2
2016-Apr-27 09:33N 43°20' E 007°31'4711.9
2016-Apr-27 05:34N 43°39' E 008°31'1212.2
2016-Apr-27 04:34N 43°43' E 008°47'1312.9
2016-Apr-27 03:34N 43°47' E 009°04'1313.2
2016-Apr-27 02:34N 43°52' E 009°21'1312.8
2016-Apr-27 01:34N 43°56' E 009°38'1111.3
2016-Apr-27 00:33N 44°01' E 009°52'6 6.0
2016-Apr-26 23:34N 44°07' E 009°50'0 0.0
2016-Apr-26 22:31N 44°07' E 009°50'0 0.0
2016-Apr-26 21:31N 44°07' E 009°50'0 0.0
2016-Apr-26 20:31N 44°07' E 009°50'0 0.0
2016-Apr-26 19:31N 44°07' E 009°50'0 0.0
2016-Apr-26 18:31N 44°07' E 009°50'0 0.0
2016-Apr-26 17:31N 44°07' E 009°50'0 0.0
2016-Apr-26 16:31N 44°07' E 009°50'0 0.0
2016-Apr-26 15:31N 44°07' E 009°50'0 0.0
2016-Apr-26 14:31N 44°07' E 009°50'0 0.0
2016-Apr-26 13:31N 44°07' E 009°50'0 0.0
2016-Apr-26 12:31N 44°07' E 009°50'0 0.0
2016-Apr-26 11:31N 44°07' E 009°50'0 0.0
2016-Apr-26 10:31N 44°07' E 009°50'0 0.0
2016-Apr-26 09:31N 44°07' E 009°50'0 0.0
2016-Apr-26 08:31N 44°07' E 009°50'0 0.0
2016-Apr-26 07:31N 44°07' E 009°50'0 0.0
2016-Apr-26 06:31N 44°07' E 009°50'0 0.0
2016-Apr-26 05:31N 44°07' E 009°50'0 0.0
2016-Apr-26 04:28N 44°07' E 009°50'0 0.0
2016-Apr-26 03:31N 44°07' E 009°50'0 0.0
2016-Apr-26 02:31N 44°07' E 009°50'0 0.0
2016-Apr-26 01:31N 44°07' E 009°50'0 0.0
2016-Apr-26 00:31N 44°07' E 009°50'0 0.0
2016-Apr-25 23:31N 44°07' E 009°50'0 0.0
2016-Apr-25 22:31N 44°07' E 009°50'0 0.0
2016-Apr-25 21:31N 44°07' E 009°50'0 0.0
2016-Apr-25 20:31N 44°07' E 009°50'0 0.0
2016-Apr-25 19:31N 44°07' E 009°50'0 0.0
2016-Apr-25 18:31N 44°07' E 009°50'0 0.0
2016-Apr-25 17:31N 44°07' E 009°50'0 0.0
2016-Apr-25 16:31N 44°07' E 009°50'0 0.0
2016-Apr-25 15:25N 44°07' E 009°50'0 0.0
2016-Apr-25 14:31N 44°07' E 009°50'0 0.0
2016-Apr-25 13:31N 44°07' E 009°50'0 0.0
2016-Apr-25 12:31N 44°07' E 009°50'0 0.0
2016-Apr-25 11:31N 44°07' E 009°50'0 0.0
2016-Apr-25 10:31N 44°07' E 009°50'0 0.0
2016-Apr-25 09:31N 44°07' E 009°50'0 0.0
2016-Apr-25 08:31N 44°07' E 009°50'0 0.0
2016-Apr-25 07:31N 44°07' E 009°50'0 0.0
2016-Apr-25 06:28N 44°07' E 009°50'1 1.2
2016-Apr-25 05:34N 44°06' E 009°51'1010.4
2016-Apr-25 04:33N 43°55' E 009°54'1312.5
2016-Apr-25 03:33N 43°44' E 009°48'1515.2
2016-Apr-25 02:33N 43°28' E 009°46'1514.6
2016-Apr-25 01:32N 43°14' E 009°42'  
Track history (hours):
 
Tides and Currents Weather Stations Pressure Air Temp Water Temp Dewpoint Dewpoint Depression Visibility Wind Speed Wind Dir Waves Ship Positions

Alianca Shanghai

Last reported at 2016-May-02 04:25 UTC. Time now 2016-May-04 04:07 UTC.
Position N 36°00' W 005°27'.

Length 199.9 m; beam 29.8 m; draft 11.6 m.

Type: Ship. MMSI: 636016014.

Date/timePositionNaut miles runAvg speedWind from/ knotsBaromVisibWave heightAir tempDewpointWater temp
2016-May-02 04:25N 36°00' W 005°27'1012.2
2016-May-02 03:34N 36°03' W 005°15'20813.8
2016-May-01 12:30N 37°09' W 001°09'1515.0
2016-May-01 11:31N 37°19' W 000°55'1414.4
2016-May-01 10:33N 37°28' W 000°42'1414.3
2016-May-01 09:34N 37°38' W 000°30'1414.3
2016-May-01 08:33N 37°51' W 000°20'9411.8
2016-May-01 00:33N 39°25' W 000°16'3 3.0
2016-Apr-30 23:33N 39°26' W 000°19'0 0.0
2016-Apr-30 22:33N 39°26' W 000°19'0 0.0
2016-Apr-30 20:27N 39°26' W 000°19'0 0.0
2016-Apr-30 19:18N 39°26' W 000°19'0 0.0
2016-Apr-30 18:30N 39°26' W 000°19'0 0.0
2016-Apr-30 17:33N 39°26' W 000°19'0 0.0
2016-Apr-30 16:33N 39°26' W 000°19'0 0.0
2016-Apr-30 15:33N 39°26' W 000°19'0 0.0
2016-Apr-30 14:21N 39°26' W 000°19'0 0.0
2016-Apr-30 13:33N 39°26' W 000°19'0 0.0
2016-Apr-30 12:24N 39°26' W 000°19'0 0.0
2016-Apr-30 11:33N 39°26' W 000°19'0 0.0
2016-Apr-30 10:33N 39°26' W 000°19'0 0.0
2016-Apr-30 08:30N 39°26' W 000°19'0 0.0
2016-Apr-30 07:33N 39°26' W 000°19'0 0.0
2016-Apr-30 06:33N 39°26' W 000°19'0 0.0
2016-Apr-30 05:33N 39°26' W 000°19'0 0.0
2016-Apr-30 04:33N 39°26' W 000°19'0 0.0
2016-Apr-30 03:33N 39°26' W 000°19'0 0.0
2016-Apr-30 02:33N 39°26' W 000°19'0 0.0
2016-Apr-30 01:33N 39°26' W 000°19'0 0.0
2016-Apr-30 00:33N 39°26' W 000°19'0 0.0
2016-Apr-29 23:33N 39°26' W 000°19'0 0.0
2016-Apr-29 22:33N 39°26' W 000°19'0 0.4
2016-Apr-29 21:33N 39°26' W 000°19'0 0.0
2016-Apr-29 20:33N 39°26' W 000°19'0 0.0
2016-Apr-29 19:33N 39°26' W 000°19'0 0.0
2016-Apr-29 18:33N 39°26' W 000°19'0 0.0
2016-Apr-29 16:30N 39°26' W 000°19'0 0.0
2016-Apr-29 15:33N 39°26' W 000°19'0 0.0
2016-Apr-29 14:27N 39°26' W 000°19'0 0.0
2016-Apr-29 13:33N 39°26' W 000°19'0 0.0
2016-Apr-29 12:33N 39°26' W 000°19'0 0.0
2016-Apr-29 11:12N 39°26' W 000°19'0 0.0
2016-Apr-29 10:30N 39°26' W 000°19'5 5.4
2016-Apr-29 09:33N 39°25' W 000°13'8 8.2
2016-Apr-29 08:33N 39°28' W 000°03'6110.1
2016-Apr-29 02:28N 40°01' E 001°04'3311.2
2016-Apr-28 23:33N 40°28' E 001°28'1111.5
2016-Apr-28 22:33N 40°38' E 001°36'1211.6
2016-Apr-28 21:33N 40°48' E 001°45'1511.7
2016-Apr-28 20:14N 41°00' E 001°56'285 8.2
2016-Apr-27 09:33N 43°20' E 007°31'4711.9
2016-Apr-27 05:34N 43°39' E 008°31'1212.2
2016-Apr-27 04:34N 43°43' E 008°47'1312.9
2016-Apr-27 03:34N 43°47' E 009°04'1313.2
2016-Apr-27 02:34N 43°52' E 009°21'1312.8
2016-Apr-27 01:34N 43°56' E 009°38'1111.3
2016-Apr-27 00:33N 44°01' E 009°52'6 6.0
2016-Apr-26 23:34N 44°07' E 009°50'0 0.0
2016-Apr-26 22:31N 44°07' E 009°50'0 0.0
2016-Apr-26 21:31N 44°07' E 009°50'0 0.0
2016-Apr-26 20:31N 44°07' E 009°50'0 0.0
2016-Apr-26 19:31N 44°07' E 009°50'0 0.0
2016-Apr-26 18:31N 44°07' E 009°50'0 0.0
2016-Apr-26 17:31N 44°07' E 009°50'0 0.0
2016-Apr-26 16:31N 44°07' E 009°50'0 0.0
2016-Apr-26 15:31N 44°07' E 009°50'0 0.0
2016-Apr-26 14:31N 44°07' E 009°50'0 0.0
2016-Apr-26 13:31N 44°07' E 009°50'0 0.0
2016-Apr-26 12:31N 44°07' E 009°50'0 0.0
2016-Apr-26 11:31N 44°07' E 009°50'0 0.0
2016-Apr-26 10:31N 44°07' E 009°50'0 0.0
2016-Apr-26 09:31N 44°07' E 009°50'0 0.0
2016-Apr-26 08:31N 44°07' E 009°50'0 0.0
2016-Apr-26 07:31N 44°07' E 009°50'0 0.0
2016-Apr-26 06:31N 44°07' E 009°50'0 0.0
2016-Apr-26 05:31N 44°07' E 009°50'0 0.0
2016-Apr-26 04:28N 44°07' E 009°50'0 0.0
2016-Apr-26 03:31N 44°07' E 009°50'0 0.0
2016-Apr-26 02:31N 44°07' E 009°50'0 0.0
2016-Apr-26 01:31N 44°07' E 009°50'0 0.0
2016-Apr-26 00:31N 44°07' E 009°50'0 0.0
2016-Apr-25 23:31N 44°07' E 009°50'0 0.0
2016-Apr-25 22:31N 44°07' E 009°50'0 0.0
2016-Apr-25 21:31N 44°07' E 009°50'0 0.0
2016-Apr-25 20:31N 44°07' E 009°50'0 0.0
2016-Apr-25 19:31N 44°07' E 009°50'0 0.0
2016-Apr-25 18:31N 44°07' E 009°50'0 0.0
2016-Apr-25 17:31N 44°07' E 009°50'0 0.0
2016-Apr-25 16:31N 44°07' E 009°50'0 0.0
2016-Apr-25 15:25N 44°07' E 009°50'0 0.0
2016-Apr-25 14:31N 44°07' E 009°50'0 0.0
2016-Apr-25 13:31N 44°07' E 009°50'0 0.0
2016-Apr-25 12:31N 44°07' E 009°50'0 0.0
2016-Apr-25 11:31N 44°07' E 009°50'0 0.0
2016-Apr-25 10:31N 44°07' E 009°50'0 0.0
2016-Apr-25 09:31N 44°07' E 009°50'0 0.0
2016-Apr-25 08:31N 44°07' E 009°50'0 0.0
2016-Apr-25 07:31N 44°07' E 009°50'0 0.0
2016-Apr-25 06:28N 44°07' E 009°50'1 1.2
2016-Apr-25 05:34N 44°06' E 009°51'1010.4
2016-Apr-25 04:33N 43°55' E 009°54'1312.5
2016-Apr-25 03:33N 43°44' E 009°48'1515.2
2016-Apr-25 02:33N 43°28' E 009°46'1514.6
2016-Apr-25 01:32N 43°14' E 009°42'  

Dump ship's entire track history